Time;durP1;ratioP1;P1;durP2;ratioP2;P2;SDS_P1;SDS_P2;PMS_P1;PMS_P2;Temp;Humidity;BMP_temperature;BMP_pressure;BME280_temperature;BME280_humidity;BME280_pressure;Samples;Min_cycle;Max_cycle;Signal;HPM_P1;HPM_P2
2022/03/05 00:02:02;;;;;;;;;;;;;;;0.96;58.12;101820.13;5173735;28;19918;-75
2022/03/05 00:04:33;;;;;;;;;;;;;;;0.90;58.20;101815.59;5173753;28;19914;-74
2022/03/05 00:07:05;;;;;;;;;;;;;;;0.91;55.10;101814.78;5173612;28;19918;-74
2022/03/05 00:09:36;;;;;;;;;;;;;;;0.88;57.11;101817.22;5173810;28;19921;-73
2022/03/05 00:12:07;;;;;;;;;;;;;;;0.80;57.55;101822.00;5173698;28;19985;-73
2022/03/05 00:14:39;;;;;;;;;;;;;;;0.75;57.80;101822.63;5173685;28;20369;-73
2022/03/05 00:17:10;;;;;;;;;;;;;;;0.70;60.79;101831.00;5173784;28;20004;-76
2022/03/05 00:19:41;;;;;;;;;;;;;;;0.62;59.00;101822.06;5173723;28;19925;-74
2022/03/05 00:22:12;;;;;;;;;;;;;;;0.64;61.41;101820.44;5173768;28;20060;-74
2022/03/05 00:24:45;;;;;;;;;;;;;;;0.50;65.20;101824.09;5173806;28;20289;-73
2022/03/05 00:27:17;;;;;;;;;;;;;;;0.42;65.23;101820.28;5173393;28;19964;-73
2022/03/05 00:29:48;;;;;;;;;;;;;;;0.41;61.07;101819.44;5173364;28;19973;-73
2022/03/05 00:32:19;;;;;;;;;;;;;;;0.40;58.57;101821.94;5173580;28;19925;-73
2022/03/05 00:34:50;;;;;;;;;;;;;;;0.38;57.57;101819.28;5173856;28;19918;-74
2022/03/05 00:37:22;;;;;;;;;;;;;;;0.39;60.03;101828.75;5173097;28;19918;-73
2022/03/05 00:39:53;;;;;;;;;;;;;;;0.32;62.97;101829.25;5173572;28;19918;-73
2022/03/05 00:42:24;;;;;;;;;;;;;;;0.27;58.24;101830.75;5173341;28;20386;-73
2022/03/05 00:44:56;;;;;;;;;;;;;;;0.27;59.89;101823.06;5173604;28;20362;-74
2022/03/05 00:47:27;;;;;;;;;;;;;;;0.20;62.77;101821.91;5173932;28;19914;-74
2022/03/05 00:49:58;;;;;;;;;;;;;;;0.15;59.46;101824.25;5173668;28;19920;-73
2022/03/05 00:52:29;;;;;;;;;;;;;;;0.12;59.92;101815.53;5173280;28;19914;-74
2022/03/05 00:55:01;;;;;;;;;;;;;;;0.05;60.98;101821.16;5176386;28;20428;-73
2022/03/05 00:57:32;;;;;;;;;;;;;;;0.04;62.10;101814.31;5173348;28;20004;-73
2022/03/05 01:00:04;;;;;;;;;;;;;;;-0.03;64.40;101819.13;5173465;28;19925;-73
2022/03/05 01:02:35;;;;;;;;;;;;;;;-0.12;64.94;101813.56;5173492;28;19918;-73
2022/03/05 01:05:07;;;;;;;;;;;;;;;-0.15;62.94;101821.13;5173937;28;19918;-73
2022/03/05 01:07:39;;;;;;;;;;;;;;;-0.20;59.64;101820.88;5176061;28;20009;-73
2022/03/05 01:10:10;;;;;;;;;;;;;;;-0.22;61.58;101819.06;5176489;28;20012;-74
2022/03/05 01:12:42;;;;;;;;;;;;;;;-0.27;62.30;101821.41;5176861;28;19922;-73
2022/03/05 01:15:13;;;;;;;;;;;;;;;-0.36;64.83;101823.53;5176816;28;19950;-73
2022/03/05 01:17:44;;;;;;;;;;;;;;;-0.45;66.42;101820.50;5176784;28;19925;-74
2022/03/05 01:20:16;;;;;;;;;;;;;;;-0.46;60.38;101814.50;5176672;28;19918;-73
2022/03/05 01:22:47;;;;;;;;;;;;;;;-0.43;59.47;101812.09;5176863;28;19920;-74
2022/03/05 01:25:19;;;;;;;;;;;;;;;-0.42;59.01;101818.09;5176376;28;19925;-73
2022/03/05 01:27:50;;;;;;;;;;;;;;;-0.41;59.88;101818.19;5176673;28;19918;-74
2022/03/05 01:30:21;;;;;;;;;;;;;;;-0.39;59.15;101819.16;5176336;28;19928;-74
2022/03/05 01:32:53;;;;;;;;;;;;;;;-0.43;61.33;101824.91;5176452;28;19925;-74
2022/03/05 01:35:24;;;;;;;;;;;;;;;-0.48;60.27;101816.13;5176456;28;19914;-73
2022/03/05 01:37:56;;;;;;;;;;;;;;;-0.53;60.83;101814.13;5176495;28;20293;-74
2022/03/05 01:40:32;;;;;;;;;;;;;;;-0.59;60.27;101818.16;5176386;28;19918;-74
2022/03/05 01:43:03;;;;;;;;;;;;;;;-0.63;62.26;101810.25;5176307;28;19914;-74
2022/03/05 01:45:34;;;;;;;;;;;;;;;-0.66;62.19;101810.09;5176342;28;19964;-73
2022/03/05 01:48:05;;;;;;;;;;;;;;;-0.70;60.29;101808.19;5176338;28;20004;-73
2022/03/05 01:50:36;;;;;;;;;;;;;;;-0.74;63.06;101813.16;5176306;28;19940;-74
2022/03/05 01:53:08;;;;;;;;;;;;;;;-0.78;59.92;101815.50;5176274;28;19922;-74
2022/03/05 01:55:40;;;;;;;;;;;;;;;-0.82;60.45;101814.47;5175785;28;19924;-74
2022/03/05 01:58:12;;;;;;;;;;;;;;;-0.88;63.54;101814.16;5176318;28;19941;-73
2022/03/05 02:00:43;;;;;;;;;;;;;;;-0.96;63.10;101820.56;5175789;28;19918;-73
2022/03/05 02:03:14;;;;;;;;;;;;;;;-0.98;62.95;101809.38;5176189;28;19917;-74
2022/03/05 02:05:46;;;;;;;;;;;;;;;-1.01;62.15;101809.22;5175859;28;19914;-74
2022/03/05 02:08:17;;;;;;;;;;;;;;;-1.04;60.27;101816.75;5176189;28;19914;-73
2022/03/05 02:10:48;;;;;;;;;;;;;;;-1.04;60.35;101822.72;5175799;28;19913;-73
2022/03/05 02:13:20;;;;;;;;;;;;;;;-1.05;60.37;101812.41;5175728;28;19914;-74
2022/03/05 02:15:54;;;;;;;;;;;;;;;-1.06;59.99;101820.88;5176076;28;19914;-72
2022/03/05 02:18:25;;;;;;;;;;;;;;;-1.08;60.43;101817.38;5174428;28;19918;-74
2022/03/05 02:20:57;;;;;;;;;;;;;;;-1.09;60.59;101813.94;5175394;28;19926;-74
2022/03/05 02:23:28;;;;;;;;;;;;;;;-1.12;60.57;101811.22;5175523;28;19964;-73
2022/03/05 02:26:02;;;;;;;;;;;;;;;-1.14;60.61;101808.59;5175351;28;19985;-74
2022/03/05 02:28:35;;;;;;;;;;;;;;;-1.17;61.51;101807.56;5175300;28;19918;-74
2022/03/05 02:31:07;;;;;;;;;;;;;;;-1.24;62.16;101803.81;5175246;28;19999;-74
2022/03/05 02:33:39;;;;;;;;;;;;;;;-1.29;61.81;101798.44;5175506;28;20760;-73
2022/03/05 02:36:10;;;;;;;;;;;;;;;-1.34;61.49;101796.44;5174329;28;19918;-74
2022/03/05 02:38:42;;;;;;;;;;;;;;;-1.41;63.13;101791.81;5174920;28;20422;-74
2022/03/05 02:41:13;;;;;;;;;;;;;;;-1.49;64.75;101789.72;5174959;28;19925;-74
2022/03/05 02:43:45;;;;;;;;;;;;;;;-1.54;64.33;101782.63;5175239;28;19924;-74
2022/03/05 02:46:16;;;;;;;;;;;;;;;-1.57;62.77;101793.56;5174925;28;19910;-74
2022/03/05 02:48:47;;;;;;;;;;;;;;;-1.62;64.19;101797.56;5174965;28;19921;-74
2022/03/05 02:51:20;;;;;;;;;;;;;;;-1.66;63.81;101799.06;5175176;28;19914;-74
2022/03/05 02:53:52;;;;;;;;;;;;;;;-1.70;64.85;101792.03;5175147;28;20024;-74
2022/03/05 02:56:23;;;;;;;;;;;;;;;-1.71;64.11;101790.25;5174921;28;20357;-73
2022/03/05 02:58:54;;;;;;;;;;;;;;;-1.75;68.35;101796.03;5174679;28;20456;-74
2022/03/05 03:01:26;;;;;;;;;;;;;;;-1.81;73.77;101799.94;5174591;28;19981;-74
2022/03/05 03:03:58;;;;;;;;;;;;;;;-1.87;75.64;101803.03;5174814;28;19925;-75
2022/03/05 03:06:29;;;;;;;;;;;;;;;-1.92;70.70;101807.88;5174806;28;19924;-73
2022/03/05 03:09:00;;;;;;;;;;;;;;;-1.89;68.61;101802.94;5174823;28;19918;-74
2022/03/05 03:11:32;;;;;;;;;;;;;;;-1.92;68.46;101799.34;5174587;28;19918;-73
2022/03/05 03:14:03;;;;;;;;;;;;;;;-1.94;67.02;101806.06;5173290;28;19965;-74
2022/03/05 03:16:34;;;;;;;;;;;;;;;-1.94;66.28;101799.25;5174477;28;19918;-73
2022/03/05 03:19:05;;;;;;;;;;;;;;;-1.97;70.97;101795.66;5174575;28;19920;-75
2022/03/05 03:21:37;;;;;;;;;;;;;;;-2.09;69.80;101796.75;5174339;28;19940;-74
2022/03/05 03:24:08;;;;;;;;;;;;;;;-2.10;66.01;101789.00;5174388;28;19929;-74
2022/03/05 03:26:39;;;;;;;;;;;;;;;-2.09;65.92;101783.97;5174119;28;20358;-73
2022/03/05 03:29:10;;;;;;;;;;;;;;;-2.10;66.36;101794.13;5173728;28;19922;-75
2022/03/05 03:31:41;;;;;;;;;;;;;;;-2.10;64.91;101797.53;5174825;28;19925;-73
2022/03/05 03:34:13;;;;;;;;;;;;;;;-2.11;66.73;101792.34;5176221;28;20362;-74
2022/03/05 03:36:44;;;;;;;;;;;;;;;-2.13;64.31;101788.84;5175619;28;19989;-75
2022/03/05 03:39:16;;;;;;;;;;;;;;;-2.14;64.28;101787.97;5174109;28;19962;-73
2022/03/05 03:41:47;;;;;;;;;;;;;;;-2.15;63.81;101787.88;5174250;28;19914;-74
2022/03/05 03:44:18;;;;;;;;;;;;;;;-2.15;64.22;101791.31;5174423;28;19918;-75
2022/03/05 03:46:50;;;;;;;;;;;;;;;-2.15;64.23;101793.00;5174431;28;19921;-75
2022/03/05 03:49:21;;;;;;;;;;;;;;;-2.18;64.28;101793.69;5174017;28;19925;-74
2022/03/05 03:51:52;;;;;;;;;;;;;;;-2.20;63.89;101793.59;5173115;28;20021;-74
2022/03/05 03:54:24;;;;;;;;;;;;;;;-2.23;64.37;101798.53;5173781;28;20285;-74
2022/03/05 03:56:55;;;;;;;;;;;;;;;-2.27;64.41;101798.28;5173852;28;19918;-74
2022/03/05 03:59:26;;;;;;;;;;;;;;;-2.29;64.05;101810.09;5174027;28;20369;-75
2022/03/05 04:01:58;;;;;;;;;;;;;;;-2.31;64.50;101799.78;5173947;28;19922;-74
2022/03/05 04:04:29;;;;;;;;;;;;;;;-2.36;64.21;101800.34;5173772;28;19965;-74
2022/03/05 04:09:50;;;;;;;;;;;;;;;-2.48;65.41;101796.31;5173872;28;19914;-74
2022/03/05 04:12:22;;;;;;;;;;;;;;;-2.53;65.61;101797.69;5174028;28;19918;-74
2022/03/05 04:14:54;;;;;;;;;;;;;;;-2.57;64.66;101793.22;5173424;28;19914;-75
2022/03/05 04:17:25;;;;;;;;;;;;;;;-2.61;66.37;101794.72;5173971;28;19918;-74
2022/03/05 04:19:56;;;;;;;;;;;;;;;-2.63;65.68;101801.41;5173636;28;20021;-74
2022/03/05 04:22:28;;;;;;;;;;;;;;;-2.68;65.72;101800.25;5173723;28;20029;-74
2022/03/05 04:24:59;;;;;;;;;;;;;;;-2.72;66.34;101803.44;5173402;28;20025;-74
2022/03/05 04:27:31;;;;;;;;;;;;;;;-2.77;65.77;101804.81;5173776;28;20424;-74
2022/03/05 04:30:03;;;;;;;;;;;;;;;-2.76;65.83;101809.16;5173533;28;19926;-74
2022/03/05 04:32:34;;;;;;;;;;;;;;;-2.78;65.45;101797.97;5173855;28;19980;-75
2022/03/05 04:35:05;;;;;;;;;;;;;;;-2.80;65.19;101804.66;5173474;28;20013;-75
2022/03/05 04:37:37;;;;;;;;;;;;;;;-2.82;65.55;101803.69;5173595;28;19965;-75
2022/03/05 04:40:08;;;;;;;;;;;;;;;-2.84;65.93;101802.72;5173521;28;19914;-73
2022/03/05 04:42:40;;;;;;;;;;;;;;;-2.86;65.83;101809.41;5176319;28;20421;-75
2022/03/05 04:45:11;;;;;;;;;;;;;;;-2.91;65.85;101809.16;5177219;28;19949;-75
2022/03/05 04:47:43;;;;;;;;;;;;;;;-2.94;65.75;101812.38;5177421;28;19925;-74
2022/03/05 04:50:14;;;;;;;;;;;;;;;-2.96;66.40;101816.53;5177316;28;20369;-75
2022/03/05 04:52:45;;;;;;;;;;;;;;;-2.98;65.84;101813.00;5177361;28;19920;-75
2022/03/05 04:55:16;;;;;;;;;;;;;;;-2.98;65.58;101822.31;5176525;28;19941;-76
2022/03/05 04:57:48;;;;;;;;;;;;;;;-3.00;65.97;101818.81;5176946;28;20304;-73
2022/03/05 05:00:19;;;;;;;;;;;;;;;-3.02;66.06;101818.72;5176995;28;20029;-74
2022/03/05 05:02:50;;;;;;;;;;;;;;;-3.05;69.69;101821.06;5177022;28;19973;-75
2022/03/05 05:05:21;;;;;;;;;;;;;;;-3.10;68.06;101822.47;5176510;28;20325;-75
2022/03/05 05:07:53;;;;;;;;;;;;;;;-3.14;66.39;101821.44;5176581;28;19953;-75
2022/03/05 05:10:25;;;;;;;;;;;;;;;-3.18;68.53;101813.50;5177147;28;19922;-75
2022/03/05 05:12:56;;;;;;;;;;;;;;;-3.21;67.25;101811.63;5177922;28;19917;-75
2022/03/05 05:15:27;;;;;;;;;;;;;;;-3.23;67.58;101814.91;5178133;28;19918;-74
2022/03/05 05:18:00;;;;;;;;;;;;;;;-3.24;67.02;101818.22;5176914;28;19957;-73
2022/03/05 05:20:31;;;;;;;;;;;;;;;-3.25;67.06;101817.34;5176780;28;19924;-74
2022/03/05 05:23:03;;;;;;;;;;;;;;;-3.27;66.84;101815.50;5159331;28;20274;-74
2022/03/05 05:25:34;;;;;;;;;;;;;;;-3.29;66.70;101820.50;5176836;28;20333;-74
2022/03/05 05:28:05;;;;;;;;;;;;;;;-3.33;66.71;101819.44;5176521;28;19914;-74
2022/03/05 05:30:36;;;;;;;;;;;;;;;-3.35;66.99;101820.13;5176440;28;20392;-75
2022/03/05 05:33:08;;;;;;;;;;;;;;;-3.38;68.66;101818.28;5176554;28;20301;-74
2022/03/05 05:35:39;;;;;;;;;;;;;;;-3.42;70.05;101829.06;5176524;28;20083;-73
2022/03/05 05:38:10;;;;;;;;;;;;;;;-3.48;73.28;101833.78;5176422;28;19918;-74
2022/03/05 05:40:41;;;;;;;;;;;;;;;-3.57;76.51;101838.34;5159087;28;19918;-74
2022/03/05 05:43:13;;;;;;;;;;;;;;;-3.58;73.83;101849.31;5176535;28;20281;-74
2022/03/05 05:45:44;;;;;;;;;;;;;;;-3.62;76.12;101843.16;5176580;28;20079;-75
2022/03/05 05:48:15;;;;;;;;;;;;;;;-3.64;74.94;101849.81;5176128;28;19953;-73
2022/03/05 05:50:46;;;;;;;;;;;;;;;-3.65;73.10;101845.53;5176177;28;20374;-74
2022/03/05 05:53:18;;;;;;;;;;;;;;;-3.64;71.92;101844.72;5176257;28;19922;-76
2022/03/05 05:55:49;;;;;;;;;;;;;;;-3.65;72.57;101842.97;5176056;28;19918;-75
2022/03/05 05:58:21;;;;;;;;;;;;;;;-3.65;72.12;101848.06;5158976;28;19917;-75
2022/03/05 06:00:52;;;;;;;;;;;;;;;-3.68;75.29;101848.75;5176119;28;19918;-74
2022/03/05 06:03:24;;;;;;;;;;;;;;;-3.72;74.17;101848.44;5175848;28;19973;-74
2022/03/05 06:05:58;;;;;;;;;;;;;;;-3.74;74.40;101852.59;5178070;28;20441;-75
2022/03/05 06:08:30;;;;;;;;;;;;;;;-3.79;77.46;101844.66;5177017;28;19984;-74
2022/03/05 06:11:01;;;;;;;;;;;;;;;-3.81;78.51;101845.34;5177559;28;19918;-75
2022/03/05 06:13:32;;;;;;;;;;;;;;;-3.83;77.31;101850.34;5176261;28;20373;-75
2022/03/05 06:16:03;;;;;;;;;;;;;;;-3.84;76.94;101853.69;5176428;28;19918;-76
2022/03/05 06:18:35;;;;;;;;;;;;;;;-3.85;74.49;101839.16;5175180;28;20393;-76
2022/03/05 06:21:06;;;;;;;;;;;;;;;-3.85;76.29;101837.53;5174530;28;19961;-76
2022/03/05 06:23:37;;;;;;;;;;;;;;;-3.83;76.26;101849.44;5176882;28;19922;-75
2022/03/05 06:26:09;;;;;;;;;;;;;;;-3.84;75.52;101851.13;5178241;28;20023;-75
2022/03/05 06:28:40;;;;;;;;;;;;;;;-3.82;76.11;101853.78;5175121;28;19918;-76
2022/03/05 06:31:12;;;;;;;;;;;;;;;-3.81;74.06;101851.31;5175276;28;19981;-75
2022/03/05 06:33:43;;;;;;;;;;;;;;;-3.80;73.37;101853.09;5174876;28;19980;-76
2022/03/05 06:36:14;;;;;;;;;;;;;;;-3.79;75.44;101854.84;5175140;28;19937;-73
2022/03/05 06:38:45;;;;;;;;;;;;;;;-3.77;75.43;101860.91;5175116;28;20008;-75
2022/03/05 06:41:17;;;;;;;;;;;;;;;-3.74;77.38;101857.69;5175051;28;20419;-76
2022/03/05 06:43:48;;;;;;;;;;;;;;;-3.74;77.98;101855.13;5175146;28;19922;-74
2022/03/05 06:46:19;;;;;;;;;;;;;;;-3.72;74.38;101858.66;5174984;28;19914;-73
2022/03/05 06:48:50;;;;;;;;;;;;;;;-3.68;77.92;101860.63;5174759;28;20344;-76
2022/03/05 06:51:22;;;;;;;;;;;;;;;-3.68;76.27;101866.59;5174993;28;19914;-76
2022/03/05 06:53:53;;;;;;;;;;;;;;;-3.66;76.30;101869.22;5174633;28;20551;-76
2022/03/05 06:56:24;;;;;;;;;;;;;;;-3.60;72.68;101853.44;5175122;28;19921;-77
2022/03/05 06:58:55;;;;;;;;;;;;;;;-3.52;72.17;101862.44;5175163;28;20008;-72
2022/03/05 07:01:27;;;;;;;;;;;;;;;-3.47;71.94;101861.06;5174817;28;19928;-73
2022/03/05 07:03:58;;;;;;;;;;;;;;;-3.40;74.14;101864.84;5174152;28;20392;-75
2022/03/05 07:06:29;;;;;;;;;;;;;;;-3.34;74.74;101873.75;5174429;28;19996;-75
2022/03/05 07:09:00;;;;;;;;;;;;;;;-3.29;76.51;101879.16;5174691;28;19917;-75
2022/03/05 07:11:32;;;;;;;;;;;;;;;-3.25;75.21;101880.19;5174264;28;19918;-75
2022/03/05 07:14:04;;;;;;;;;;;;;;;-3.18;73.23;101875.56;5174442;28;19925;-73
2022/03/05 07:16:35;;;;;;;;;;;;;;;-3.09;74.60;101882.03;5174691;28;19918;-75
2022/03/05 07:19:06;;;;;;;;;;;;;;;-3.04;72.53;101880.63;5174175;28;19918;-74
2022/03/05 07:21:37;;;;;;;;;;;;;;;-2.97;73.18;101885.31;5173703;28;19980;-76
2022/03/05 07:24:08;;;;;;;;;;;;;;;-2.89;75.77;101886.66;5174140;28;19921;-75
2022/03/05 07:26:40;;;;;;;;;;;;;;;-2.84;74.45;101887.81;5174352;28;19984;-73
2022/03/05 07:29:11;;;;;;;;;;;;;;;-2.72;75.69;101894.41;5173047;28;20392;-74
2022/03/05 07:31:42;;;;;;;;;;;;;;;-2.68;72.91;101894.69;5173864;28;19922;-73
2022/03/05 07:34:13;;;;;;;;;;;;;;;-2.59;73.85;101895.25;5157046;28;19922;-72
2022/03/05 07:36:45;;;;;;;;;;;;;;;-2.49;73.23;101888.13;5173502;28;20746;-72
2022/03/05 07:39:16;;;;;;;;;;;;;;;-2.39;73.08;101895.50;5173814;28;20493;-72
2022/03/05 07:41:48;;;;;;;;;;;;;;;-2.30;75.62;101890.94;5173929;28;19918;-73
2022/03/05 07:44:19;;;;;;;;;;;;;;;-2.21;77.86;101890.56;5173831;28;19921;-73
2022/03/05 07:46:50;;;;;;;;;;;;;;;-2.13;77.84;101886.78;5173697;28;19918;-72
2022/03/05 07:49:22;;;;;;;;;;;;;;;-2.04;72.68;101884.75;5156742;28;19918;-73
2022/03/05 07:51:53;;;;;;;;;;;;;;;-1.92;71.49;101883.69;5173732;28;19973;-72
2022/03/05 07:54:26;;;;;;;;;;;;;;;-1.80;74.22;101884.38;5173712;28;20353;-73
2022/03/05 07:56:58;;;;;;;;;;;;;;;-1.61;77.16;101893.03;5174043;28;19914;-73
2022/03/05 07:59:29;;;;;;;;;;;;;;;-1.54;75.96;101897.69;5173860;28;19932;-73
2022/03/05 08:02:00;;;;;;;;;;;;;;;-1.41;72.45;101894.13;5173481;28;20001;-72
2022/03/05 08:04:31;;;;;;;;;;;;;;;-1.28;76.25;101906.75;5173479;28;19921;-72
2022/03/05 08:07:04;;;;;;;;;;;;;;;-1.16;74.94;101899.75;5173494;28;19918;-74
2022/03/05 08:09:36;;;;;;;;;;;;;;;-1.04;71.71;101907.19;5173659;28;20236;-73
2022/03/05 08:12:07;;;;;;;;;;;;;;;-0.89;73.22;101908.78;5173468;28;20012;-73
2022/03/05 08:14:41;;;;;;;;;;;;;;;-0.77;72.15;101912.00;5170739;28;19918;-73
2022/03/05 08:17:12;;;;;;;;;;;;;;;-0.62;70.96;101911.88;5173782;28;20333;-72
2022/03/05 08:19:44;;;;;;;;;;;;;;;-0.47;72.63;101915.22;5176893;28;19961;-72
2022/03/05 08:22:15;;;;;;;;;;;;;;;-0.29;74.66;101919.50;5176103;28;19968;-72
2022/03/05 08:24:46;;;;;;;;;;;;;;;-0.16;73.29;101916.75;5176875;28;19918;-72
2022/03/05 08:27:18;;;;;;;;;;;;;;;-0.03;72.35;101918.25;5177026;28;19926;-73
2022/03/05 08:29:49;;;;;;;;;;;;;;;0.07;71.03;101917.88;5175570;28;19973;-73
2022/03/05 08:32:20;;;;;;;;;;;;;;;0.30;71.34;101921.53;5176609;28;19944;-74
2022/03/05 08:34:51;;;;;;;;;;;;;;;0.56;74.17;101919.28;5176927;28;19929;-73
2022/03/05 08:37:23;;;;;;;;;;;;;;;0.86;74.02;101918.97;5175882;28;19918;-74
2022/03/05 08:39:54;;;;;;;;;;;;;;;1.27;72.78;101925.03;5176668;28;19940;-73
2022/03/05 08:42:25;;;;;;;;;;;;;;;1.48;71.97;101916.50;5177126;28;20084;-74
2022/03/05 08:44:57;;;;;;;;;;;;;;;1.77;72.01;101918.63;5176164;28;19926;-74
2022/03/05 08:47:29;;;;;;;;;;;;;;;2.13;72.17;101920.91;5171482;28;19922;-73
2022/03/05 08:50:00;;;;;;;;;;;;;;;2.37;70.98;101912.44;5169641;28;20373;-73
2022/03/05 08:52:36;;;;;;;;;;;;;;;2.65;70.88;101918.63;5173326;28;20009;-72
2022/03/05 08:55:08;;;;;;;;;;;;;;;2.98;71.72;101923.25;5171246;28;20730;-73
2022/03/05 08:57:39;;;;;;;;;;;;;;;3.48;71.04;101916.47;5162480;28;19997;-72
2022/03/05 09:00:12;;;;;;;;;;;;;;;3.72;70.06;101915.53;5157269;28;20583;-72
2022/03/05 09:02:43;;;;;;;;;;;;;;;4.04;69.48;101913.13;5174394;28;19914;-72
2022/03/05 09:05:15;;;;;;;;;;;;;;;4.35;69.72;101921.03;5173671;28;19992;-73
2022/03/05 09:07:46;;;;;;;;;;;;;;;4.64;68.20;101922.75;5175477;28;20290;-72
2022/03/05 09:10:18;;;;;;;;;;;;;;;4.81;66.55;101923.25;5175308;28;19922;-73
2022/03/05 09:12:49;;;;;;;;;;;;;;;5.06;66.88;101917.94;5175303;28;20392;-74
2022/03/05 09:15:20;;;;;;;;;;;;;;;5.25;66.65;101915.88;5175523;28;19926;-73
2022/03/05 09:17:51;;;;;;;;;;;;;;;5.58;65.45;101918.47;5175581;28;19914;-73
2022/03/05 09:20:23;;;;;;;;;;;;;;;5.90;65.05;101914.97;5175726;28;20357;-72
2022/03/05 09:22:55;;;;;;;;;;;;;;;6.21;64.32;101916.59;5172994;28;20017;-72
2022/03/05 09:25:27;;;;;;;;;;;;;;;6.41;63.77;101913.56;5174426;28;19918;-73
2022/03/05 09:27:59;;;;;;;;;;;;;;;6.92;61.20;101908.66;5159451;28;19944;-73
2022/03/05 09:30:30;;;;;;;;;;;;;;;7.09;60.92;101906.38;5168611;28;20425;-73
2022/03/05 09:33:01;;;;;;;;;;;;;;;7.39;60.92;101905.22;5165188;28;20000;-73
2022/03/05 09:35:33;;;;;;;;;;;;;;;7.76;59.72;101903.28;5170390;28;19921;-73
2022/03/05 09:38:04;;;;;;;;;;;;;;;8.12;53.69;101896.06;5175927;28;19917;-74
2022/03/05 09:40:35;;;;;;;;;;;;;;;8.40;56.46;101903.41;5157974;28;19923;-73
2022/03/05 09:43:07;;;;;;;;;;;;;;;8.74;56.95;101903.88;5155129;28;20220;-73
2022/03/05 09:45:38;;;;;;;;;;;;;;;9.22;53.27;101895.75;5158439;28;19937;-73
2022/03/05 09:48:10;;;;;;;;;;;;;;;9.40;49.99;101908.09;5168214;28;19965;-73
2022/03/05 09:50:42;;;;;;;;;;;;;;;9.54;46.82;101911.69;5167103;28;19925;-74
2022/03/05 09:53:14;;;;;;;;;;;;;;;9.38;47.98;101905.47;5165857;28;19981;-72
2022/03/05 09:55:48;;;;;;;;;;;;;;;9.52;50.58;101909.94;5174825;28;20289;-73
2022/03/05 09:58:19;;;;;;;;;;;;;;;9.47;43.74;101902.97;5169460;28;19925;-73
2022/03/05 10:00:51;;;;;;;;;;;;;;;9.72;48.81;101905.78;5175069;28;20437;-73
2022/03/05 10:03:22;;;;;;;;;;;;;;;10.16;48.23;101907.00;5175549;28;19918;-72
2022/03/05 10:06:12;;;;;;;;;;;;;;;10.50;45.25;101904.66;5175474;28;20016;-73
2022/03/05 10:08:44;;;;;;;;;;;;;;;11.06;45.77;101903.13;5175411;28;20000;-74
2022/03/05 10:11:16;;;;;;;;;;;;;;;11.28;40.17;101904.91;5175197;28;19978;-73
2022/03/05 10:13:47;;;;;;;;;;;;;;;11.58;43.41;101908.47;5174527;28;19925;-73
2022/03/05 10:16:28;;;;;;;;;;;;;;;11.85;42.71;101905.00;5174329;28;19922;-71
2022/03/05 10:19:17;;;;;;;;;;;;;;;12.22;43.73;101898.91;5175565;28;20383;-73
2022/03/05 10:22:03;;;;;;;;;;;;;;;12.75;41.81;101902.22;5175717;28;19956;-73
2022/03/05 10:24:39;;;;;;;;;;;;;;;12.65;39.95;101900.53;5175130;28;19918;-74
2022/03/05 10:27:10;;;;;;;;;;;;;;;12.65;40.55;101900.53;5175853;28;20474;-74
2022/03/05 10:29:42;;;;;;;;;;;;;;;12.73;39.61;101891.75;5157923;28;19926;-73
2022/03/05 10:32:15;;;;;;;;;;;;;;;13.06;41.30;101897.72;5175426;28;19914;-73
2022/03/05 10:34:52;;;;;;;;;;;;;;;13.53;39.25;101898.34;5175315;28;20338;-72
2022/03/05 10:37:24;;;;;;;;;;;;;;;14.00;38.25;101898.84;5175064;28;19920;-72
2022/03/05 10:39:55;;;;;;;;;;;;;;;14.42;37.58;101904.53;5173942;28;19918;-73
2022/03/05 10:42:27;;;;;;;;;;;;;;;14.67;34.38;101896.41;5175125;28;20369;-72
2022/03/05 10:45:08;;;;;;;;;;;;;;;14.97;35.81;101899.53;5175081;28;19976;-73
2022/03/05 10:47:41;;;;;;;;;;;;;;;15.27;35.07;101891.22;5174845;28;19918;-73
2022/03/05 10:50:15;;;;;;;;;;;;;;;15.76;34.50;101896.59;5174932;28;19929;-73
2022/03/05 10:52:50;;;;;;;;;;;;;;;15.96;30.68;101899.78;5174854;28;19920;-74
2022/03/05 10:55:23;;;;;;;;;;;;;;;15.78;31.88;101902.75;5174462;28;19965;-74
2022/03/05 10:57:55;;;;;;;;;;;;;;;15.79;34.24;101907.09;5174831;28;20317;-72
2022/03/05 11:00:29;;;;;;;;;;;;;;;15.96;33.73;101897.16;5174619;28;19917;-73
2022/03/05 11:03:03;;;;;;;;;;;;;;;16.33;33.63;101900.91;5174634;28;19914;-72
2022/03/05 11:05:34;;;;;;;;;;;;;;;16.57;33.16;101895.16;5174841;28;19918;-73
2022/03/05 11:08:06;;;;;;;;;;;;;;;17.11;32.75;101901.97;5174596;28;20354;-73
2022/03/05 11:10:38;;;;;;;;;;;;;;;17.11;32.12;101903.69;5174238;28;20569;-73
2022/03/05 11:13:09;;;;;;;;;;;;;;;17.02;31.99;101898.66;5174478;28;19922;-73
2022/03/05 11:15:40;;;;;;;;;;;;;;;17.11;29.05;101896.69;5174676;28;19913;-73
2022/03/05 11:18:12;;;;;;;;;;;;;;;17.57;31.09;101902.63;5174473;28;19918;-73
2022/03/05 11:20:45;;;;;;;;;;;;;;;18.29;29.91;101899.06;5174231;28;19925;-72
2022/03/05 11:23:17;;;;;;;;;;;;;;;18.53;29.07;101884.31;5174261;28;19918;-73
2022/03/05 11:25:49;;;;;;;;;;;;;;;18.68;29.05;101885.69;5173999;28;20033;-72
2022/03/05 11:28:22;;;;;;;;;;;;;;;19.16;28.00;101882.50;5173985;28;19997;-75
2022/03/05 11:30:55;;;;;;;;;;;;;;;19.81;27.68;101886.56;5162978;28;19922;-73
2022/03/05 11:33:38;;;;;;;;;;;;;;;20.31;26.71;101888.34;5153870;28;20242;-73
2022/03/05 11:36:28;;;;;;;;;;;;;;;19.27;26.49;101890.94;5153730;29;19922;-73
2022/03/05 11:39:07;;;;;;;;;;;;;;;19.83;25.76;101886.50;5154229;28;19918;-72
2022/03/05 11:41:47;;;;;;;;;;;;;;;20.25;24.99;101888.56;5153612;28;19918;-73
2022/03/05 11:44:20;;;;;;;;;;;;;;;20.54;24.30;101889.28;5152757;28;19918;-72
2022/03/05 11:47:14;;;;;;;;;;;;;;;20.70;24.83;101884.31;5153030;29;19918;-73
2022/03/05 11:50:01;;;;;;;;;;;;;;;21.43;23.43;101890.28;5145904;28;19921;-74
2022/03/05 11:52:38;;;;;;;;;;;;;;;21.78;22.37;101891.53;5153775;29;19973;-74
2022/03/05 11:55:16;;;;;;;;;;;;;;;22.07;22.33;101880.56;5152977;28;19929;-73
2022/03/05 11:57:50;;;;;;;;;;;;;;;22.21;22.67;101878.19;5153779;29;19973;-74
2022/03/05 12:00:26;;;;;;;;;;;;;;;22.34;21.91;101875.88;5153782;29;20029;-75
2022/03/05 12:02:58;;;;;;;;;;;;;;;22.87;21.54;101875.19;5153508;29;19919;-74
2022/03/05 12:05:38;;;;;;;;;;;;;;;23.19;20.88;101872.81;5153583;29;19918;-72
2022/03/05 12:08:12;;;;;;;;;;;;;;;23.55;20.88;101873.72;5153662;29;19918;-73
2022/03/05 12:11:03;;;;;;;;;;;;;;;23.32;21.31;101869.56;5152197;29;20271;-74
2022/03/05 12:13:41;;;;;;;;;;;;;;;23.66;20.06;101877.56;5151942;29;19926;-74
2022/03/05 12:16:21;;;;;;;;;;;;;;;23.60;20.39;101871.69;5150004;29;20000;-73
2022/03/05 12:18:57;;;;;;;;;;;;;;;23.70;20.01;101877.41;5151174;29;19922;-73
2022/03/05 12:21:29;;;;;;;;;;;;;;;23.74;18.14;101871.00;5151722;29;19929;-74
2022/03/05 12:24:07;;;;;;;;;;;;;;;24.51;19.33;101865.16;5153867;29;20013;-73
2022/03/05 12:26:40;;;;;;;;;;;;;;;24.77;18.49;101864.72;5153453;29;19941;-73
2022/03/05 12:29:11;;;;;;;;;;;;;;;24.88;18.89;101863.16;5151776;29;19918;-73
2022/03/05 12:31:43;;;;;;;;;;;;;;;24.74;19.37;101858.59;5169700;28;20337;-74
2022/03/05 12:34:19;;;;;;;;;;;;;;;25.06;19.12;101857.75;5172740;28;19918;-73
2022/03/05 12:36:51;;;;;;;;;;;;;;;25.39;18.03;101862.97;5172628;28;19918;-73
2022/03/05 12:39:25;;;;;;;;;;;;;;;25.54;18.05;101858.53;5172304;28;20044;-73
2022/03/05 12:41:56;;;;;;;;;;;;;;;25.85;17.83;101854.88;5171313;28;19918;-73
2022/03/05 12:44:33;;;;;;;;;;;;;;;25.84;17.43;101852.28;5171343;28;19918;-72
2022/03/05 12:47:05;;;;;;;;;;;;;;;25.98;17.76;101849.69;5169913;28;19973;-74
2022/03/05 12:49:37;;;;;;;;;;;;;;;26.07;17.49;101855.44;5171492;28;19921;-74
2022/03/05 12:52:09;;;;;;;;;;;;;;;26.64;17.14;101850.06;5172464;28;20001;-73
2022/03/05 12:54:43;;;;;;;;;;;;;;;26.95;16.57;101853.44;5172981;28;20528;-74
2022/03/05 12:57:14;;;;;;;;;;;;;;;26.92;16.39;101842.97;5155738;28;19929;-74
2022/03/05 12:59:45;;;;;;;;;;;;;;;27.42;16.68;101846.78;5175538;28;20333;-73
2022/03/05 13:02:17;;;;;;;;;;;;;;;27.39;16.86;101841.63;5183537;28;19948;-73
2022/03/05 13:04:52;;;;;;;;;;;;;;;27.61;16.43;101842.84;5193617;28;19917;-73
2022/03/05 13:07:41;;;;;;;;;;;;;;;27.37;16.48;101840.00;5181099;28;20359;-74